Time;durP1;ratioP1;P1;durP2;ratioP2;P2;SDS_P1;SDS_P2;PMS_P1;PMS_P2;Temp;Humidity;BMP_temperature;BMP_pressure;BME280_temperature;BME280_humidity;BME280_pressure;Samples;Min_cycle;Max_cycle;Signal;HPM_P1;HPM_P2
2023/09/06 00:00:55;;;;;;;6.23;2.87;;;13.80;99.90;;;;;;5025363;28;20177;-61
2023/09/06 00:03:21;;;;;;;8.40;2.80;;;13.80;99.90;;;;;;5018490;28;20182;-61
2023/09/06 00:05:47;;;;;;;9.80;3.83;;;13.80;99.90;;;;;;5019812;28;20418;-61
2023/09/06 00:08:14;;;;;;;6.37;2.53;;;13.80;99.90;;;;;;5029800;28;20414;-61
2023/09/06 00:10:43;;;;;;;4.33;2.80;;;13.80;99.90;;;;;;5031251;28;20179;-61
2023/09/06 00:13:11;;;;;;;5.20;3.23;;;13.80;99.90;;;;;;5018154;28;20460;-61
2023/09/06 00:15:37;;;;;;;5.40;2.27;;;13.70;99.90;;;;;;5031441;28;20892;-62
2023/09/06 00:18:08;;;;;;;4.93;2.70;;;13.70;99.90;;;;;;5030914;28;20555;-61
2023/09/06 00:20:34;;;;;;;6.30;3.30;;;13.60;99.90;;;;;;5018805;28;20191;-62
2023/09/06 00:23:05;;;;;;;5.37;2.80;;;13.60;99.90;;;;;;5024541;28;20426;-61
2023/09/06 00:25:31;;;;;;;4.60;2.30;;;13.50;99.90;;;;;;5024380;28;20933;-61
2023/09/06 00:27:59;;;;;;;2.87;2.40;;;13.60;99.90;;;;;;5017825;28;20775;-61
2023/09/06 00:30:25;;;;;;;6.17;2.33;;;13.60;99.90;;;;;;5019328;28;20505;-61
2023/09/06 00:32:53;;;;;;;4.63;2.63;;;13.50;99.90;;;;;;5030384;28;21009;-61
2023/09/06 00:35:20;;;;;;;3.50;1.87;;;13.30;99.90;;;;;;5029918;28;20183;-61
2023/09/06 00:37:46;;;;;;;7.50;3.30;;;13.20;99.90;;;;;;5023370;28;20422;-61
2023/09/06 00:42:38;;;;;;;5.87;3.27;;;13.20;99.90;;;;;;5019120;28;20425;-61
2023/09/06 00:45:04;;;;;;;10.27;2.90;;;13.20;99.90;;;;;;5017423;28;20266;-62
2023/09/06 00:47:30;;;;;;;6.80;2.13;;;13.10;99.90;;;;;;5030311;28;20467;-61
2023/09/06 00:49:56;;;;;;;6.30;2.07;;;13.10;99.90;;;;;;5022643;28;20782;-61
2023/09/06 00:52:22;;;;;;;4.83;2.80;;;13.10;99.90;;;;;;5018124;28;20465;-61
2023/09/06 00:54:48;;;;;;;9.13;2.93;;;13.10;99.90;;;;;;5017475;28;20183;-61
2023/09/06 00:57:13;;;;;;;6.17;2.60;;;13.00;99.90;;;;;;5031137;28;20192;-61
2023/09/06 00:59:40;;;;;;;11.80;3.30;;;13.00;99.90;;;;;;5017082;28;20421;-61
2023/09/06 01:02:06;;;;;;;6.53;3.30;;;13.00;99.90;;;;;;5029816;28;20192;-61
2023/09/06 01:04:32;;;;;;;5.53;2.63;;;12.90;99.90;;;;;;5016685;28;20493;-62
2023/09/06 01:07:02;;;;;;;5.17;2.37;;;12.90;99.90;;;;;;5028892;28;20217;-62
2023/09/06 01:09:31;;;;;;;3.90;2.30;;;12.80;99.90;;;;;;5030132;28;20500;-61
2023/09/06 01:11:57;;;;;;;4.90;2.70;;;12.80;99.90;;;;;;5021950;28;20465;-62
2023/09/06 01:14:22;;;;;;;7.90;3.63;;;12.80;99.90;;;;;;5025702;28;20425;-61
2023/09/06 01:16:49;;;;;;;7.27;3.40;;;12.70;99.90;;;;;;5021639;28;20185;-61
2023/09/06 01:19:18;;;;;;;4.90;2.50;;;12.70;99.90;;;;;;5025605;28;20178;-60
2023/09/06 01:22:10;;;;;;;4.50;2.67;;;12.70;99.90;;;;;;5030176;28;20421;-60
2023/09/06 01:24:36;;;;;;;5.77;2.43;;;12.70;99.90;;;;;;5029967;28;21413;-60
2023/09/06 01:27:04;;;;;;;6.37;2.77;;;12.70;99.90;;;;;;5030293;28;20418;-60
2023/09/06 01:29:31;;;;;;;7.63;2.80;;;12.60;99.90;;;;;;5023918;28;20434;-60
2023/09/06 01:31:56;;;;;;;4.50;2.50;;;12.60;99.90;;;;;;5010756;28;20469;-59
2023/09/06 01:34:22;;;;;;;7.20;2.77;;;12.60;99.90;;;;;;5020655;28;20498;-60
2023/09/06 01:36:48;;;;;;;6.60;3.20;;;12.50;99.90;;;;;;5030161;28;20291;-60
2023/09/06 01:39:13;;;;;;;5.73;2.70;;;12.50;99.90;;;;;;5024299;28;20175;-60
2023/09/06 01:41:39;;;;;;;16.07;2.80;;;12.50;99.90;;;;;;5023195;28;20179;-60
2023/09/06 01:44:05;;;;;;;5.67;2.70;;;12.50;99.90;;;;;;5030256;28;20254;-60
2023/09/06 01:46:30;;;;;;;8.17;2.73;;;12.40;99.90;;;;;;5029474;28;20240;-60
2023/09/06 01:48:59;;;;;;;14.80;2.90;;;12.40;99.90;;;;;;5019817;28;20189;-60
2023/09/06 01:51:25;;;;;;;4.37;2.37;;;12.30;99.90;;;;;;5020634;28;20201;-60
2023/09/06 01:53:50;;;;;;;4.67;2.20;;;12.30;99.90;;;;;;5034268;28;20449;-60
2023/09/06 01:56:16;;;;;;;8.67;2.57;;;12.40;99.90;;;;;;5033841;28;20186;-60
2023/09/06 01:58:42;;;;;;;5.63;2.67;;;12.30;99.90;;;;;;5027594;28;20187;-60
2023/09/06 02:01:09;;;;;;;4.97;2.73;;;12.30;99.90;;;;;;5026714;28;20594;-60
2023/09/06 02:03:35;;;;;;;4.73;2.27;;;12.30;99.90;;;;;;5027246;28;20172;-60
2023/09/06 02:06:02;;;;;;;4.00;2.30;;;12.30;99.90;;;;;;5026836;28;20537;-60
2023/09/06 02:08:27;;;;;;;7.43;2.33;;;12.30;99.90;;;;;;5032711;28;20436;-60
2023/09/06 02:10:53;;;;;;;5.57;2.53;;;12.30;99.90;;;;;;5033393;28;20762;-60
2023/09/06 02:13:19;;;;;;;4.90;2.50;;;12.20;99.90;;;;;;5020050;28;20202;-60
2023/09/06 02:15:44;;;;;;;6.40;2.60;;;12.20;99.90;;;;;;5020275;28;20186;-60
2023/09/06 02:18:10;;;;;;;3.57;2.20;;;12.20;99.90;;;;;;5032822;28;20305;-60
2023/09/06 02:20:39;;;;;;;3.33;2.13;;;12.10;99.90;;;;;;5024988;28;20176;-60
2023/09/06 02:23:05;;;;;;;7.00;3.07;;;12.10;99.90;;;;;;5024953;28;20444;-60
2023/09/06 02:25:31;;;;;;;4.33;2.80;;;12.10;99.90;;;;;;5020216;28;20803;-60
2023/09/06 02:27:58;;;;;;;8.00;2.90;;;12.00;99.90;;;;;;5033485;28;21230;-59
2023/09/06 02:30:23;;;;;;;5.73;2.57;;;12.00;99.90;;;;;;5030174;28;20720;-60
2023/09/06 02:32:50;;;;;;;4.90;2.90;;;12.00;99.90;;;;;;5032584;28;20468;-60
2023/09/06 02:35:16;;;;;;;5.40;1.90;;;11.90;99.90;;;;;;5033227;28;20258;-60
2023/09/06 02:37:41;;;;;;;4.87;2.70;;;11.90;99.90;;;;;;5021880;28;20501;-60
2023/09/06 02:40:16;;;;;;;7.40;2.90;;;11.80;99.90;;;;;;5031364;28;20213;-60
2023/09/06 02:42:42;;;;;;;7.60;3.20;;;11.80;99.90;;;;;;5033338;28;20381;-60
2023/09/06 02:45:11;;;;;;;4.53;2.37;;;11.80;99.90;;;;;;5027205;28;20525;-60
2023/09/06 02:47:48;;;;;;;6.17;2.30;;;11.80;99.90;;;;;;5025678;28;20287;-60
2023/09/06 02:50:18;;;;;;;4.67;2.80;;;11.80;99.90;;;;;;5023346;28;20466;-60
2023/09/06 02:52:47;;;;;;;8.37;2.90;;;11.80;99.90;;;;;;5031210;28;20996;-60
2023/09/06 02:55:13;;;;;;;4.90;2.70;;;11.70;99.90;;;;;;5021364;28;20417;-60
2023/09/06 02:57:43;;;;;;;5.83;2.20;;;11.60;99.90;;;;;;5019700;28;20553;-60
2023/09/06 03:00:23;;;;;;;9.20;2.90;;;11.70;99.90;;;;;;5023661;28;20468;-60
2023/09/06 03:02:50;;;;;;;5.13;2.23;;;11.70;99.90;;;;;;5030083;28;20748;-60
2023/09/06 03:05:17;;;;;;;6.10;2.70;;;11.60;99.90;;;;;;5020956;28;20426;-60
2023/09/06 03:07:50;;;;;;;10.60;3.37;;;11.70;99.90;;;;;;5030366;28;20508;-60
2023/09/06 03:10:19;;;;;;;6.00;3.53;;;11.70;99.90;;;;;;5028424;28;20451;-60
2023/09/06 03:12:45;;;;;;;6.67;3.10;;;11.70;99.90;;;;;;5027048;28;20469;-60
2023/09/06 03:15:11;;;;;;;7.70;3.27;;;11.60;99.90;;;;;;5025238;28;20436;-60
2023/09/06 03:17:37;;;;;;;4.93;2.40;;;11.60;99.90;;;;;;5019181;28;20900;-60
2023/09/06 03:20:22;;;;;;;3.20;2.00;;;11.60;99.90;;;;;;5031079;28;20174;-60
2023/09/06 03:22:51;;;;;;;10.77;3.53;;;11.60;99.90;;;;;;5023651;28;20264;-60
2023/09/06 03:25:17;;;;;;;4.80;2.10;;;11.60;99.90;;;;;;5028078;28;20818;-60
2023/09/06 03:27:43;;;;;;;6.20;2.50;;;11.50;99.90;;;;;;5023514;28;20456;-60
2023/09/06 03:30:10;;;;;;;5.40;2.40;;;11.50;99.90;;;;;;5019188;28;20478;-60
2023/09/06 03:32:35;;;;;;;6.47;2.70;;;11.40;99.90;;;;;;5020718;28;20464;-60
2023/09/06 03:35:04;;;;;;;7.80;2.90;;;11.40;99.90;;;;;;5025341;28;20765;-60
2023/09/06 03:37:30;;;;;;;5.60;2.53;;;11.30;99.90;;;;;;5023975;28;20179;-60
2023/09/06 03:39:56;;;;;;;4.47;2.20;;;11.30;99.90;;;;;;5027585;28;20421;-60
2023/09/06 03:42:23;;;;;;;8.40;3.17;;;11.30;99.90;;;;;;5023959;28;20417;-60
2023/09/06 03:44:49;;;;;;;6.93;2.90;;;11.30;99.90;;;;;;5018408;28;20179;-60
2023/09/06 03:47:16;;;;;;;5.47;2.53;;;11.30;99.90;;;;;;5019969;28;20436;-60
2023/09/06 03:49:43;;;;;;;5.23;3.00;;;11.50;99.90;;;;;;5030884;28;20437;-60
2023/09/06 03:52:10;;;;;;;4.77;2.83;;;11.40;99.90;;;;;;5030398;28;20471;-60
2023/09/06 03:54:36;;;;;;;5.33;2.90;;;11.30;99.90;;;;;;5042706;28;20448;-60
2023/09/06 03:57:03;;;;;;;6.50;2.90;;;11.30;99.90;;;;;;5032012;28;20444;-60
2023/09/06 03:59:31;;;;;;;4.97;2.50;;;11.30;99.90;;;;;;5051040;28;20448;-60
2023/09/06 04:01:57;;;;;;;5.80;3.43;;;11.20;99.90;;;;;;5048826;28;20482;-60
2023/09/06 04:04:23;;;;;;;6.20;2.80;;;11.20;99.90;;;;;;5051462;28;20850;-60
2023/09/06 04:06:48;;;;;;;7.30;3.60;;;11.10;99.90;;;;;;5039279;28;20262;-60
2023/09/06 04:09:14;;;;;;;7.40;3.13;;;11.20;99.90;;;;;;5037812;28;20178;-60
2023/09/06 04:11:40;;;;;;;6.67;2.70;;;11.20;99.90;;;;;;5043519;28;20236;-60
2023/09/06 04:14:07;;;;;;;6.63;2.90;;;11.10;99.90;;;;;;5051281;28;20182;-60
2023/09/06 04:16:35;;;;;;;6.50;3.60;;;11.10;99.90;;;;;;5051272;28;20423;-60
2023/09/06 04:19:01;;;;;;;21.30;5.97;;;11.10;99.90;;;;;;5044464;28;20422;-60
2023/09/06 04:21:26;;;;;;;8.33;4.83;;;11.10;99.90;;;;;;5031707;28;20870;-60
2023/09/06 04:23:52;;;;;;;10.87;5.23;;;11.10;99.90;;;;;;5050599;28;20197;-60
2023/09/06 04:26:20;;;;;;;5.77;3.43;;;11.10;99.90;;;;;;5051308;28;20232;-60
2023/09/06 04:28:45;;;;;;;9.03;4.53;;;11.00;99.90;;;;;;5045155;28;20328;-60
2023/09/06 04:31:11;;;;;;;7.97;3.87;;;11.00;99.90;;;;;;5031127;28;20508;-60
2023/09/06 04:33:36;;;;;;;5.23;2.90;;;10.90;99.90;;;;;;5048851;28;20217;-60
2023/09/06 04:36:04;;;;;;;5.30;2.80;;;10.90;99.90;;;;;;5043595;28;20976;-60
2023/09/06 04:38:31;;;;;;;7.03;2.80;;;10.90;99.90;;;;;;5050989;28;20193;-60
2023/09/06 04:40:58;;;;;;;5.40;3.27;;;10.90;99.90;;;;;;5051104;28;20412;-60
2023/09/06 04:43:25;;;;;;;6.60;3.50;;;10.90;99.90;;;;;;5050792;28;20462;-60
2023/09/06 04:45:51;;;;;;;6.73;3.00;;;10.80;99.90;;;;;;5050501;28;20412;-60
2023/09/06 04:48:17;;;;;;;6.70;2.87;;;10.80;99.90;;;;;;5044254;28;20432;-60
2023/09/06 04:50:44;;;;;;;5.03;2.33;;;10.90;99.90;;;;;;5037617;28;20182;-60
2023/09/06 04:53:11;;;;;;;7.80;3.07;;;10.80;99.90;;;;;;5024370;28;20502;-60
2023/09/06 04:55:38;;;;;;;5.10;2.77;;;10.80;99.90;;;;;;5050584;28;20424;-60
2023/09/06 04:58:04;;;;;;;8.13;3.53;;;10.80;99.90;;;;;;5051151;28;20416;-60
2023/09/06 05:00:32;;;;;;;6.97;2.80;;;10.80;99.90;;;;;;5047648;28;20408;-60
2023/09/06 05:03:00;;;;;;;7.03;2.67;;;10.80;99.90;;;;;;5050464;28;20507;-60
2023/09/06 05:05:26;;;;;;;7.10;4.07;;;10.80;99.90;;;;;;5042948;28;20422;-60
2023/09/06 05:07:51;;;;;;;5.30;2.93;;;10.80;99.90;;;;;;5025640;28;20432;-60
2023/09/06 05:10:17;;;;;;;6.87;2.60;;;10.70;99.90;;;;;;5025741;28;20189;-60
2023/09/06 05:12:45;;;;;;;6.60;2.30;;;10.80;99.90;;;;;;5024547;28;20194;-60
2023/09/06 05:15:12;;;;;;;5.07;2.70;;;10.80;99.90;;;;;;5023951;28;20202;-60
2023/09/06 05:17:41;;;;;;;7.00;3.83;;;10.80;99.90;;;;;;5025813;28;20436;-60
2023/09/06 05:20:33;;;;;;;5.17;3.27;;;10.80;99.90;;;;;;5023459;28;20435;-60
2023/09/06 05:23:04;;;;;;;13.53;2.80;;;10.80;99.90;;;;;;5025793;28;20777;-60
2023/09/06 05:25:30;;;;;;;5.13;2.47;;;10.90;99.90;;;;;;5027464;28;20571;-60
2023/09/06 05:27:58;;;;;;;4.50;2.50;;;11.00;99.90;;;;;;5034738;28;20432;-60
2023/09/06 05:30:24;;;;;;;8.13;3.00;;;11.00;99.90;;;;;;5031932;28;20964;-60
2023/09/06 05:32:50;;;;;;;4.03;2.27;;;11.10;99.90;;;;;;5030723;28;20562;-60
2023/09/06 05:35:16;;;;;;;6.10;3.00;;;11.10;99.90;;;;;;5036501;28;20444;-60
2023/09/06 05:37:41;;;;;;;5.50;3.00;;;11.10;99.90;;;;;;5030319;28;20622;-60
2023/09/06 05:40:09;;;;;;;6.97;3.60;;;11.10;99.90;;;;;;5030937;28;20181;-60
2023/09/06 05:42:35;;;;;;;6.70;3.57;;;11.30;99.90;;;;;;5043685;28;20258;-60
2023/09/06 05:45:00;;;;;;;5.83;3.30;;;11.40;99.90;;;;;;5050378;28;20428;-60
2023/09/06 05:47:26;;;;;;;3.43;2.50;;;11.50;99.90;;;;;;5049580;28;20494;-60
2023/09/06 05:49:55;;;;;;;4.93;3.00;;;11.50;99.90;;;;;;5020649;28;20529;-60
2023/09/06 05:52:22;;;;;;;8.40;3.17;;;11.60;99.90;;;;;;5030736;28;20744;-60
2023/09/06 05:54:48;;;;;;;10.20;3.80;;;11.60;99.90;;;;;;5049989;28;20441;-60
2023/09/06 05:57:14;;;;;;;7.03;3.07;;;11.70;99.90;;;;;;5036500;28;20475;-60
2023/09/06 05:59:39;;;;;;;8.77;4.47;;;11.90;99.90;;;;;;5050411;28;20169;-60
2023/09/06 06:02:06;;;;;;;8.70;4.43;;;11.90;99.90;;;;;;5034835;28;20429;-60
2023/09/06 06:04:31;;;;;;;14.67;4.80;;;11.90;99.90;;;;;;5049580;28;20186;-60
2023/09/06 06:06:57;;;;;;;10.60;3.70;;;11.80;99.90;;;;;;5036459;28;20428;-60
2023/09/06 06:09:25;;;;;;;5.13;3.40;;;11.90;99.90;;;;;;5036510;28;20681;-60
2023/09/06 06:11:54;;;;;;;6.53;3.33;;;12.00;99.90;;;;;;5043569;28;20185;-60
2023/09/06 06:14:20;;;;;;;6.40;3.30;;;12.10;99.90;;;;;;5029744;28;20453;-60
2023/09/06 06:16:46;;;;;;;5.40;3.80;;;12.20;99.90;;;;;;5044313;28;20502;-60
2023/09/06 06:19:12;;;;;;;8.67;5.60;;;12.30;99.90;;;;;;5042017;28;20414;-60
2023/09/06 06:21:39;;;;;;;11.10;5.63;;;12.40;99.90;;;;;;5031166;28;20178;-60
2023/09/06 06:24:09;;;;;;;11.97;6.00;;;12.50;99.90;;;;;;5049714;28;20424;-60
2023/09/06 06:26:34;;;;;;;8.53;5.17;;;12.60;99.90;;;;;;5049986;28;20420;-60
2023/09/06 06:29:01;;;;;;;9.13;5.07;;;12.70;99.90;;;;;;5050091;28;20440;-60
2023/09/06 06:31:27;;;;;;;8.20;4.80;;;12.80;99.90;;;;;;5041357;28;20534;-60
2023/09/06 06:33:53;;;;;;;7.80;4.07;;;13.00;99.90;;;;;;5042208;28;20457;-60
2023/09/06 06:36:19;;;;;;;7.97;4.70;;;13.10;99.90;;;;;;5048135;28;20174;-60
2023/09/06 06:38:48;;;;;;;8.60;4.67;;;13.20;99.90;;;;;;5044964;28;20179;-60
2023/09/06 06:41:20;;;;;;;6.57;3.87;;;13.30;99.90;;;;;;5048809;28;20182;-61
2023/09/06 06:43:49;;;;;;;22.80;3.97;;;13.50;99.90;;;;;;5043657;28;20499;-61
2023/09/06 06:46:29;;;;;;;7.60;4.50;;;13.70;99.90;;;;;;5049433;28;20424;-60
2023/09/06 06:48:56;;;;;;;8.33;3.67;;;13.90;99.90;;;;;;5053164;28;20443;-60
2023/09/06 06:51:24;;;;;;;12.13;3.37;;;14.10;99.90;;;;;;5039509;28;20471;-61
2023/09/06 06:53:49;;;;;;;8.97;3.73;;;14.30;99.90;;;;;;5053072;28;20490;-61
2023/09/06 06:56:21;;;;;;;5.00;3.83;;;14.40;99.90;;;;;;5047677;28;20496;-61
2023/09/06 06:58:50;;;;;;;6.67;3.30;;;14.60;99.90;;;;;;5045888;28;20611;-61
2023/09/06 07:01:16;;;;;;;7.53;3.97;;;14.90;99.90;;;;;;5036605;28;20416;-61
2023/09/06 07:03:42;;;;;;;8.97;3.53;;;15.30;99.90;;;;;;5052664;28;20856;-61
2023/09/06 07:06:08;;;;;;;5.40;2.60;;;15.50;99.90;;;;;;5046664;28;20275;-61
2023/09/06 07:08:35;;;;;;;5.03;3.00;;;15.70;99.90;;;;;;5031051;28;20265;-61
2023/09/06 07:11:03;;;;;;;8.20;2.80;;;16.10;99.90;;;;;;5034986;28;21005;-61
2023/09/06 07:13:29;;;;;;;8.23;3.20;;;16.70;99.90;;;;;;5029332;28;20541;-61
2023/09/06 07:15:55;;;;;;;6.07;2.97;;;17.30;99.90;;;;;;5029639;28;20524;-61
2023/09/06 07:18:21;;;;;;;11.00;3.47;;;17.80;99.90;;;;;;5026206;28;20178;-61
2023/09/06 07:20:47;;;;;;;5.10;2.67;;;18.20;99.90;;;;;;5032679;28;20417;-61
2023/09/06 07:23:13;;;;;;;5.63;3.03;;;18.70;99.90;;;;;;5026930;28;20265;-61
2023/09/06 07:25:39;;;;;;;5.73;2.63;;;19.60;99.90;;;;;;5029079;28;20520;-65
2023/09/06 07:28:05;;;;;;;8.60;2.70;;;20.30;99.90;;;;;;5031218;28;20202;-65
2023/09/06 07:30:31;;;;;;;14.53;3.67;;;21.10;99.70;;;;;;5034939;28;20474;-65
2023/09/06 07:32:56;;;;;;;11.13;2.70;;;22.10;98.80;;;;;;5039107;28;20208;-66
2023/09/06 07:35:22;;;;;;;8.40;3.00;;;23.40;96.50;;;;;;5041864;28;20424;-66
2023/09/06 07:37:48;;;;;;;4.93;2.97;;;24.20;95.20;;;;;;5031743;28;20228;-66
2023/09/06 07:40:13;;;;;;;10.63;3.80;;;24.30;94.30;;;;;;5052839;28;20180;-66
2023/09/06 07:42:39;;;;;;;6.30;2.87;;;24.70;93.40;;;;;;5052055;28;20181;-66
2023/09/06 07:45:09;;;;;;;7.50;2.83;;;24.70;93.40;;;;;;5025306;28;20212;-66
2023/09/06 07:47:34;;;;;;;7.43;2.63;;;24.60;92.80;;;;;;5034546;28;20421;-66
2023/09/06 07:50:00;;;;;;;7.20;2.93;;;24.20;93.40;;;;;;5031179;28;20490;-66
2023/09/06 07:52:26;;;;;;;10.17;2.80;;;24.30;93.40;;;;;;5028812;28;20887;-66
2023/09/06 07:54:51;;;;;;;5.63;2.57;;;24.10;93.50;;;;;;5025968;28;20189;-66
2023/09/06 07:57:17;;;;;;;11.93;2.30;;;23.90;93.90;;;;;;5028400;28;20611;-66
2023/09/06 07:59:43;;;;;;;7.33;2.47;;;24.20;94.00;;;;;;5035700;28;20178;-66
2023/09/06 08:02:08;;;;;;;3.60;2.10;;;24.30;93.80;;;;;;5028457;28;20208;-66
2023/09/06 08:04:34;;;;;;;5.60;2.53;;;24.70;93.50;;;;;;5037392;28;20188;-66
2023/09/06 08:07:00;;;;;;;5.23;2.40;;;24.90;93.50;;;;;;5031145;28;20537;-66
2023/09/06 08:09:25;;;;;;;4.73;2.33;;;24.50;94.00;;;;;;5036608;28;20201;-66
2023/09/06 08:11:51;;;;;;;8.50;2.30;;;25.00;92.80;;;;;;5023832;28;20189;-66
2023/09/06 08:14:17;;;;;;;6.97;2.90;;;24.90;92.80;;;;;;5029493;28;20261;-67
2023/09/06 08:16:43;;;;;;;5.67;2.60;;;24.70;93.30;;;;;;5029846;28;20743;-66
2023/09/06 08:19:08;;;;;;;4.00;2.80;;;25.10;93.40;;;;;;5034891;28;20182;-66
2023/09/06 08:21:34;;;;;;;3.67;2.43;;;25.00;93.50;;;;;;5034321;28;20178;-66
2023/09/06 08:24:02;;;;;;;6.77;2.90;;;25.10;92.90;;;;;;5037801;28;20625;-66
2023/09/06 08:26:28;;;;;;;6.40;3.23;;;25.30;92.90;;;;;;5023794;28;20722;-67
2023/09/06 08:28:54;;;;;;;4.20;2.63;;;25.70;93.00;;;;;;5027140;28;20618;-66
2023/09/06 08:31:19;;;;;;;5.45;2.45;;;25.90;92.70;;;;;;5024163;28;20265;-66
2023/09/06 08:33:45;;;;;;;4.68;2.65;;;26.20;91.90;;;;;;5034498;28;20197;-66
2023/09/06 08:36:11;;;;;;;5.22;2.70;;;25.40;92.30;;;;;;5044876;28;20177;-66
2023/09/06 08:38:39;;;;;;;5.05;2.83;;;26.10;91.90;;;;;;5050853;28;20181;-66
2023/09/06 08:41:07;;;;;;;6.35;2.75;;;26.30;91.40;;;;;;5041186;28;20186;-66
2023/09/06 08:43:42;;;;;;;4.65;2.95;;;26.50;90.60;;;;;;5038837;28;20235;-66
2023/09/06 08:46:18;;;;;;;4.57;2.45;;;25.90;91.70;;;;;;5030678;28;20205;-66
2023/09/06 08:48:45;;;;;;;9.32;2.35;;;26.00;91.70;;;;;;5041924;28;20234;-66
2023/09/06 08:51:11;;;;;;;10.88;1.92;;;26.30;91.40;;;;;;5036302;28;20185;-66
2023/09/06 08:53:42;;;;;;;5.20;2.78;;;26.20;91.10;;;;;;5036730;28;20226;-66
2023/09/06 08:56:09;;;;;;;5.35;2.58;;;25.60;91.10;;;;;;5024255;28;20186;-66
2023/09/06 08:58:35;;;;;;;4.35;2.17;;;25.80;91.00;;;;;;5030435;28;20937;-67
2023/09/06 09:01:05;;;;;;;3.60;2.08;;;26.00;91.30;;;;;;5040692;28;20189;-66
2023/09/06 09:03:31;;;;;;;7.95;3.00;;;26.00;91.00;;;;;;5037052;28;20190;-66
2023/09/06 09:06:06;;;;;;;5.57;2.65;;;26.40;90.40;;;;;;5030576;28;20189;-67
2023/09/06 09:08:32;;;;;;;3.33;2.03;;;26.80;89.90;;;;;;5030205;28;20486;-66
2023/09/06 09:11:12;;;;;;;6.43;2.53;;;26.60;90.50;;;;;;5028416;28;20717;-66
2023/09/06 09:13:39;;;;;;;5.63;2.25;;;25.80;90.70;;;;;;5029517;28;20221;-67
2023/09/06 09:16:12;;;;;;;4.63;2.40;;;25.70;91.60;;;;;;5031032;28;20185;-67
2023/09/06 09:18:38;;;;;;;4.75;2.80;;;26.10;91.80;;;;;;5036619;28;20170;-66
2023/09/06 09:21:04;;;;;;;5.63;2.88;;;26.30;91.00;;;;;;5034119;28;20174;-66
2023/09/06 09:23:46;;;;;;;4.65;2.40;;;26.50;91.10;;;;;;5033136;28;20191;-67
2023/09/06 09:26:12;;;;;;;9.48;3.10;;;26.30;91.00;;;;;;5050658;28;20196;-67
2023/09/06 09:28:41;;;;;;;4.68;2.22;;;26.70;90.50;;;;;;5050396;28;20661;-66
2023/09/06 09:31:11;;;;;;;6.72;2.50;;;26.60;91.20;;;;;;5050257;28;20822;-66
2023/09/06 09:33:36;;;;;;;7.03;2.95;;;27.30;89.60;;;;;;5035299;28;20212;-67
2023/09/06 09:36:02;;;;;;;6.05;2.55;;;27.50;89.30;;;;;;5043045;28;20195;-66
2023/09/06 09:38:28;;;;;;;6.95;2.95;;;27.30;88.70;;;;;;5044293;28;20174;-67
2023/09/06 09:41:05;;;;;;;11.55;3.20;;;27.00;90.90;;;;;;5043456;28;20219;-67
2023/09/06 09:43:31;;;;;;;5.95;2.92;;;26.90;90.10;;;;;;5042980;28;20256;-66
2023/09/06 09:45:57;;;;;;;4.38;2.35;;;27.20;90.50;;;;;;5038211;28;20269;-67
2023/09/06 09:48:33;;;;;;;5.03;2.72;;;27.20;88.40;;;;;;5049994;28;20184;-66
2023/09/06 09:51:07;;;;;;;5.75;2.47;;;27.10;88.40;;;;;;5039829;28;20273;-66
2023/09/06 09:53:35;;;;;;;6.25;2.78;;;26.00;91.00;;;;;;5036138;28;20220;-66
2023/09/06 09:56:10;;;;;;;4.88;2.42;;;25.60;91.00;;;;;;5036476;28;20223;-66
2023/09/06 09:58:39;;;;;;;4.22;2.30;;;25.30;91.20;;;;;;5042352;28;20176;-66
2023/09/06 10:01:05;;;;;;;4.07;2.20;;;24.90;91.80;;;;;;5049845;28;20272;-66
2023/09/06 10:03:35;;;;;;;4.03;2.50;;;24.60;92.30;;;;;;5049911;28;20256;-66
2023/09/06 10:06:03;;;;;;;6.13;2.60;;;24.50;92.50;;;;;;5025110;28;20421;-66
2023/09/06 10:08:31;;;;;;;3.30;2.20;;;24.00;93.90;;;;;;5030008;28;20447;-66
2023/09/06 10:10:57;;;;;;;6.47;2.70;;;24.00;93.40;;;;;;5022445;28;21197;-66
2023/09/06 10:13:26;;;;;;;4.20;2.50;;;24.10;93.00;;;;;;5030491;28;20491;-66
2023/09/06 10:15:53;;;;;;;12.23;2.77;;;24.00;93.70;;;;;;5037589;28;20751;-66
2023/09/06 10:18:18;;;;;;;3.20;2.03;;;23.90;93.80;;;;;;5027587;28;20455;-66
2023/09/06 10:20:45;;;;;;;14.73;2.60;;;23.90;93.80;;;;;;5033683;28;20452;-66
2023/09/06 10:23:12;;;;;;;4.87;2.70;;;23.90;94.20;;;;;;5033500;28;20540;-66
2023/09/06 10:25:43;;;;;;;4.57;2.30;;;23.90;93.70;;;;;;5038868;28;20900;-66
2023/09/06 10:28:09;;;;;;;4.57;2.27;;;23.80;94.40;;;;;;5048845;28;20457;-66
2023/09/06 10:30:47;;;;;;;3.80;2.50;;;24.00;94.40;;;;;;5042549;28;20424;-66
2023/09/06 10:33:47;;;;;;;4.70;2.27;;;23.80;95.20;;;;;;5031187;28;20307;-66
2023/09/06 10:36:13;;;;;;;6.43;3.00;;;24.20;94.50;;;;;;5033060;28;20428;-65
2023/09/06 10:38:51;;;;;;;4.10;2.53;;;24.30;93.80;;;;;;5038990;28;20424;-66
2023/09/06 10:41:18;;;;;;;4.37;2.50;;;24.20;95.80;;;;;;5037309;28;20426;-66
2023/09/06 10:44:00;;;;;;;5.30;2.77;;;24.20;94.60;;;;;;5020365;28;20459;-66
2023/09/06 10:46:33;;;;;;;5.97;2.87;;;24.20;95.00;;;;;;5032694;28;20432;-65
2023/09/06 10:49:22;;;;;;;4.57;2.90;;;24.30;95.00;;;;;;5021888;28;20436;-66
2023/09/06 10:52:08;;;;;;;4.87;3.20;;;24.60;94.90;;;;;;5034955;28;20416;-66
2023/09/06 10:54:37;;;;;;;4.30;2.67;;;24.80;95.30;;;;;;5051439;28;20946;-66
2023/09/06 10:57:05;;;;;;;6.23;2.90;;;25.10;94.10;;;;;;5031257;28;20520;-66
2023/09/06 10:59:35;;;;;;;6.70;2.70;;;25.10;93.50;;;;;;5028869;28;20423;-66
2023/09/06 11:02:10;;;;;;;6.50;3.10;;;24.70;94.80;;;;;;5032792;28;20450;-65
2023/09/06 11:04:36;;;;;;;4.80;2.40;;;24.90;94.40;;;;;;5037554;28;20933;-66
2023/09/06 11:07:10;;;;;;;4.43;2.40;;;25.00;94.40;;;;;;5028511;28;20890;-66
2023/09/06 11:09:49;;;;;;;3.67;1.87;;;25.10;94.70;;;;;;5028588;28;20432;-66
2023/09/06 11:12:14;;;;;;;5.20;2.90;;;25.30;94.30;;;;;;5026474;28;21069;-67
2023/09/06 11:14:42;;;;;;;8.23;3.00;;;25.30;95.10;;;;;;5026461;28;20432;-67
2023/09/06 11:17:07;;;;;;;4.47;2.47;;;25.50;93.60;;;;;;5033242;28;20222;-67
2023/09/06 11:19:36;;;;;;;30.43;3.10;;;25.30;93.90;;;;;;5031778;28;20420;-67
2023/09/06 11:22:11;;;;;;;8.90;3.03;;;25.60;93.20;;;;;;5035373;28;20188;-67
2023/09/06 11:24:37;;;;;;;8.10;3.13;;;25.60;93.10;;;;;;5034963;28;20427;-67
2023/09/06 11:27:33;;;;;;;6.10;3.03;;;25.60;92.70;;;;;;5031372;28;20740;-66
2023/09/06 11:30:10;;;;;;;9.80;3.67;;;25.30;93.40;;;;;;5032602;28;21038;-66
2023/09/06 11:32:39;;;;;;;7.37;3.13;;;25.30;94.60;;;;;;5042808;28;20461;-66
2023/09/06 11:35:08;;;;;;;5.50;2.90;;;25.30;93.90;;;;;;5037027;28;20420;-67
2023/09/06 11:37:38;;;;;;;5.83;2.93;;;25.30;94.10;;;;;;5043023;28;20443;-67
2023/09/06 11:40:15;;;;;;;5.50;3.07;;;25.50;93.40;;;;;;5050444;28;20423;-67
2023/09/06 11:42:48;;;;;;;8.23;2.97;;;25.70;92.80;;;;;;5037122;28;20428;-67
2023/09/06 11:45:17;;;;;;;10.63;3.77;;;25.60;92.60;;;;;;5050419;28;20481;-67
2023/09/06 11:47:46;;;;;;;7.30;2.77;;;25.80;93.10;;;;;;5034942;28;20423;-67
2023/09/06 11:50:19;;;;;;;6.73;2.80;;;25.60;93.40;;;;;;5022345;28;20516;-67
2023/09/06 11:52:49;;;;;;;9.20;3.00;;;25.70;93.20;;;;;;5026896;28;20470;-67
2023/09/06 11:55:19;;;;;;;8.37;2.93;;;25.80;92.80;;;;;;5023117;28;20453;-67
2023/09/06 11:57:52;;;;;;;4.90;2.90;;;25.80;93.00;;;;;;5021796;28;20510;-67
2023/09/06 12:00:27;;;;;;;6.73;3.50;;;25.90;92.50;;;;;;5031228;28;20902;-67
2023/09/06 12:03:19;;;;;;;5.27;2.80;;;26.00;94.30;;;;;;5016616;28;20436;-67
2023/09/06 12:05:46;;;;;;;5.80;2.93;;;26.00;93.80;;;;;;5035208;28;20404;-67
2023/09/06 12:08:17;;;;;;;11.73;2.87;;;26.20;92.70;;;;;;5031284;28;20431;-67
2023/09/06 12:10:49;;;;;;;5.60;3.30;;;26.30;93.50;;;;;;5034523;28;20227;-67
2023/09/06 12:13:17;;;;;;;4.20;2.53;;;26.60;92.70;;;;;;5037201;28;20724;-67
2023/09/06 12:15:44;;;;;;;5.50;2.60;;;26.50;92.70;;;;;;5040252;28;20178;-67
2023/09/06 12:18:09;;;;;;;3.27;2.23;;;26.60;92.50;;;;;;5042715;28;20197;-67
2023/09/06 12:20:35;;;;;;;6.33;3.23;;;26.30;92.90;;;;;;5034100;28;20447;-67
2023/09/06 12:23:05;;;;;;;5.23;3.07;;;26.30;92.80;;;;;;5038003;28;20261;-67
2023/09/06 12:25:30;;;;;;;6.87;3.30;;;26.50;93.90;;;;;;5018983;28;20274;-67
2023/09/06 12:27:56;;;;;;;4.57;2.40;;;26.70;92.90;;;;;;5038023;28;20281;-67
2023/09/06 12:30:23;;;;;;;3.93;2.10;;;27.00;91.90;;;;;;5038469;28;20192;-66
2023/09/06 12:32:48;;;;;;;4.00;2.17;;;26.90;93.60;;;;;;5034244;28;20227;-67
2023/09/06 12:35:14;;;;;;;7.50;2.93;;;27.20;92.10;;;;;;5037537;28;20177;-67
2023/09/06 12:37:40;;;;;;;8.40;2.80;;;27.30;92.30;;;;;;5042152;28;20187;-67
2023/09/06 12:40:13;;;;;;;5.30;3.10;;;27.30;91.90;;;;;;5049653;28;20231;-67
2023/09/06 12:42:43;;;;;;;4.70;2.97;;;27.30;91.10;;;;;;5036399;28;20181;-67
2023/09/06 12:45:16;;;;;;;5.50;2.87;;;27.30;92.00;;;;;;5049109;28;20177;-67
2023/09/06 12:47:42;;;;;;;7.70;2.20;;;27.20;92.40;;;;;;5033707;28;20182;-67
2023/09/06 12:50:08;;;;;;;6.90;3.50;;;27.40;91.70;;;;;;5035091;28;20223;-67
2023/09/06 12:52:34;;;;;;;5.03;2.70;;;27.40;91.00;;;;;;5022362;28;20314;-67